East Coast: Past 24 Hour Conditions

 

Blanc-Sablon Airport

01:00 PM AST 24 November 2014
This table is a summary of hourly weather conditions for the past 24 hours.
Date / Time
(AST)
Wind(knots) Conditions Visibility(km) Pressure(kPa) Air tempC) Relative humidity(%) Dew pointC) Wind Chill
24 November 2014
13:00 SW 7 Mainly Sunny 24 102.4 -5 64 -11 -11
12:00 WSW 3 Mainly Sunny 24 102.4 -6 58 -13 -8
11:00 N 8 Sunny 24 102.4 -7 59 -14 -13
10:00 N 5 Sunny 24 102.4 -8 61 -14 -13
9:00 NE 4 Sunny 24 102.4 -10 67 -15 -14
8:00 NW 6 Sunny 24 102.3 -10 72 -14 -15
7:00 WNW 9 Mainly Clear 24 102.3 -10 71 -14 -17
6:00 WNW 12 Mainly Clear 24 102.2 -10 71 -14 -18
5:00 WNW 14 gust 19 Clear 24 102.1 -10 69 -14 -18
4:00 WNW 13 gust 18 Clear 24 102.0 -9 68 -14 -18
3:00 WNW 11 Clear 24 101.8 -10 69 -14 -17
2:00 WNW 12 Clear 24 101.7 -10 68 -15 -18
1:00 W 10 gust 16 Clear 24 101.6 -10 69 -14 -17
0:00 WNW 11 gust 17 Clear 24 101.6 -10 66 -15 -18
23 November 2014
23:00 WNW 15 gust 22 Clear 24 101.4 -9 59 -16 -19
22:00 WNW 19 gust 27 Clear 24 101.4 -9 59 -16 -19
21:00 W 17 gust 22 Clear 24 101.3 -9 60 -15 -18
20:00 W 18 gust 24 Clear 24 101.2 -8 60 -15 -18
19:00 W 16 Clear 24 101.1 -8 62 -14 -17
18:00 WNW 20 gust 27 Clear 24 100.9 -7 57 -14 -17
17:00 WNW 17 gust 25 Mainly Clear 24 100.7 -6 58 -13 -15
16:00 WNW 17 gust 27 Mainly Clear 24 100.5 -5 56 -12 -13
15:00 WNW 17 gust 25 Mainly Sunny 24 100.3 -4 56 -11 -12
14:00 WNW 19 gust 26 Mostly Cloudy 24 100.2 -4 58 -11 -12
13:00 WNW 17 gust 26 Sunny 24 100.0 -3 55 -11 -11
 
Map of Atlantic - Newfoundland marine weather areas Southwestern Grand Banks - 44138 Banquereau - 44139 Tail of the Bank - 44140 Nickerson Bank - 44251 Northeast Burgeo Bank - 44255 Blanc-Sablon Airport Cap Whittle Chevery Natashquan Airport Heath Point Miscou Island Grand Étang Ingonish Beach North Mountain St.Paul Island J.A. Douglas McCurdy Sydney Airport Charlottetown Airport East Point North Cape Argentia Bonavista Burgeo Cape Race Corner Brook Daniel's Harbour Englee Ferolle Point La Scie Port aux Basques Rocky Harbour Sagona Island St. Anthony Airport St. John's Int'l Airport St. Lawrence Stephenville Airport Twillingate Winterland Wreckhouse Cartwright Airport Mary's Harbour Grates Cove Pool's Island Marticot Island Long Pond Îles de la Madeleine Airport
Legend: buoyBuoy land stationLand Station